Scranton, KS (66537)

5:04 PM CST on November 20, 2017 (GMT -0600)
SW Scranton | | Change Station
Active Advisory: Wind Advisory

Elev 1145 ft 38.77 °N, 95.78 °W | Updated 11 minutes ago

Partly Cloudy
Partly Cloudy
58.3 °F
Feels Like 58.3 °F
N
18.0
Wind Variable Wind from SSW

Today
High -- | Low -- °F
--% Chance of Precip.
Yesterday
High -- | Low -- °F
Precip. -- in
Pressure 29.73 in
Visibility 10.0 miles
Clouds Clear
Dew Point 31 °F
Humidity 35%
Rainfall 0.00 in
Snow Depth Not available.
7:11 AM 5:05 PM
Waxing Crescent, 6% visible
METAR KFOE 202253Z 21016G25KT 10SM CLR 16/M02 A2973 RMK AO2 PK WND 20029/2159 SLP068 T01611022
Pressure 29.73 in
Visibility 10.0 miles
Clouds Clear
Dew Point 31 °F
Humidity 35%
Rainfall 0.00 in
Snow Depth Not available.
7:11 AM 5:05 PM
Waxing Crescent, 6% visible
METAR KFOE 202253Z 21016G25KT 10SM CLR 16/M02 A2973 RMK AO2 PK WND 20029/2159 SLP068 T01611022

Get Your Daily Forecast Email!

Thanks for signing up!

Be on the lookout for a verification email in your inbox.

You'll start receiving severe weather alerts in your inbox..

×

10-Day Weather Forecast

Almanac

Astronomy

Nov. 20, 2017 Rise Set
Actual Time
Civil Twilight
Nautical Twilight
Astronomical Twilight
Moon
Length of Visible Light
Length of Day
Tomorrow will be .
, % of the Moon is Illuminated

Today's Extremes

State Highs State Lows

Community

WunderPhotos

Category 6

Welcome to Category 6. This is the collective home for Weather Underground's featured writeups by Dr. Jeff Masters (right), Bob Henson (left), Chris Burt, and other regular contributors.

Nearby

Air Quality

  Air Quality AQ Index Pollutant
Not available.

Snow Depth

Station Depth Elevation

Earthquake Activity

City Distance Mag. Time & Date
Minimum magnitude displayed is 2.5.

Coastal Water Temperatures

Place Temperature

Stations

Nearby Weather Stations

Station Location Temp. Windchill Dew Point Humidity Wind Precip. Elev Updated Type
                   

Watches & Warnings

Wind Advisory
Issued: 12:44 PM CST Nov. 20, 2017 – National Weather Service

... Wind Advisory in effect until 6 PM CST this evening...

The National Weather Service in Topeka has issued a Wind
Advisory, which is in effect until 6 PM CST this evening.

* Timing... this afternoon until 6 PM CST.

* Winds... southwest winds of 30 mph with gusts up to 45 mph.

* Impacts... use caution when driving high profile vehicles
especially on east and west roadways. Working outdoors on
elevated structures will be potentially hazardous.

Precautionary/preparedness actions...

A Wind Advisory means that sustained winds of 30 mph or gusts to
45 mph are expected. Steps should be taken to secure any lawn
furniture or light weight objects and use extra caution when
driving.